sensor_id;sensor_type;location;lat;lon;timestamp;P1;durP1;ratioP1;P2;durP2;ratioP2
47535;SDS011;33278;50.826;9.030;2022-08-21T00:02:22;4.55;;;4.25;;
47535;SDS011;33278;50.826;9.030;2022-08-21T00:07:24;4.53;;;4.23;;
47535;SDS011;33278;50.826;9.030;2022-08-21T00:09:55;4.50;;;4.10;;
47535;SDS011;33278;50.826;9.030;2022-08-21T00:12:26;4.43;;;4.13;;
47535;SDS011;33278;50.826;9.030;2022-08-21T00:14:57;4.95;;;4.60;;
47535;SDS011;33278;50.826;9.030;2022-08-21T00:17:28;4.43;;;4.13;;
47535;SDS011;33278;50.826;9.030;2022-08-21T00:19:58;4.30;;;4.00;;
47535;SDS011;33278;50.826;9.030;2022-08-21T00:22:28;4.60;;;4.22;;
47535;SDS011;33278;50.826;9.030;2022-08-21T00:24:59;4.22;;;3.92;;
47535;SDS011;33278;50.826;9.030;2022-08-21T00:27:29;4.57;;;4.28;;
47535;SDS011;33278;50.826;9.030;2022-08-21T00:29:59;4.47;;;4.07;;
47535;SDS011;33278;50.826;9.030;2022-08-21T00:32:30;5.80;;;4.40;;
47535;SDS011;33278;50.826;9.030;2022-08-21T00:35:00;4.78;;;4.38;;
47535;SDS011;33278;50.826;9.030;2022-08-21T00:37:31;4.53;;;4.13;;
47535;SDS011;33278;50.826;9.030;2022-08-21T00:40:01;4.95;;;4.55;;
47535;SDS011;33278;50.826;9.030;2022-08-21T00:42:32;4.28;;;3.97;;
47535;SDS011;33278;50.826;9.030;2022-08-21T00:45:03;5.03;;;4.50;;
47535;SDS011;33278;50.826;9.030;2022-08-21T00:47:34;4.63;;;4.23;;
47535;SDS011;33278;50.826;9.030;2022-08-21T00:50:05;4.63;;;4.22;;
47535;SDS011;33278;50.826;9.030;2022-08-21T00:52:38;4.10;;;3.80;;
47535;SDS011;33278;50.826;9.030;2022-08-21T00:55:11;4.43;;;4.03;;
47535;SDS011;33278;50.826;9.030;2022-08-21T00:57:44;4.47;;;3.53;;
47535;SDS011;33278;50.826;9.030;2022-08-21T01:00:22;5.00;;;4.22;;
47535;SDS011;33278;50.826;9.030;2022-08-21T01:02:59;4.07;;;3.67;;
47535;SDS011;33278;50.826;9.030;2022-08-21T01:05:30;4.43;;;4.03;;
47535;SDS011;33278;50.826;9.030;2022-08-21T01:08:00;4.32;;;4.03;;
47535;SDS011;33278;50.826;9.030;2022-08-21T01:10:31;4.53;;;4.13;;
47535;SDS011;33278;50.826;9.030;2022-08-21T01:13:01;4.80;;;4.40;;
47535;SDS011;33278;50.826;9.030;2022-08-21T01:15:34;4.90;;;4.50;;
47535;SDS011;33278;50.826;9.030;2022-08-21T01:18:07;4.38;;;3.97;;
47535;SDS011;33278;50.826;9.030;2022-08-21T01:23:11;4.65;;;4.13;;
47535;SDS011;33278;50.826;9.030;2022-08-21T01:25:42;4.00;;;3.70;;
47535;SDS011;33278;50.826;9.030;2022-08-21T01:28:13;4.68;;;4.28;;
47535;SDS011;33278;50.826;9.030;2022-08-21T01:30:44;4.15;;;3.85;;
47535;SDS011;33278;50.826;9.030;2022-08-21T01:33:14;4.40;;;4.00;;
47535;SDS011;33278;50.826;9.030;2022-08-21T01:35:45;4.72;;;4.32;;
47535;SDS011;33278;50.826;9.030;2022-08-21T01:38:15;4.63;;;4.30;;
47535;SDS011;33278;50.826;9.030;2022-08-21T01:40:46;4.25;;;3.85;;
47535;SDS011;33278;50.826;9.030;2022-08-21T01:43:16;4.65;;;4.30;;
47535;SDS011;33278;50.826;9.030;2022-08-21T01:45:47;5.07;;;4.68;;
47535;SDS011;33278;50.826;9.030;2022-08-21T01:48:17;4.80;;;4.35;;
47535;SDS011;33278;50.826;9.030;2022-08-21T01:50:47;4.25;;;3.95;;
47535;SDS011;33278;50.826;9.030;2022-08-21T01:53:18;4.18;;;3.67;;
47535;SDS011;33278;50.826;9.030;2022-08-21T01:55:48;4.57;;;4.28;;
47535;SDS011;33278;50.826;9.030;2022-08-21T01:58:18;4.20;;;3.90;;
47535;SDS011;33278;50.826;9.030;2022-08-21T02:00:49;4.15;;;3.85;;
47535;SDS011;33278;50.826;9.030;2022-08-21T02:03:19;4.85;;;4.45;;
47535;SDS011;33278;50.826;9.030;2022-08-21T02:05:49;6.35;;;4.45;;
47535;SDS011;33278;50.826;9.030;2022-08-21T02:08:20;4.38;;;3.97;;
47535;SDS011;33278;50.826;9.030;2022-08-21T02:10:53;4.43;;;4.03;;
47535;SDS011;33278;50.826;9.030;2022-08-21T02:13:23;4.55;;;4.15;;
47535;SDS011;33278;50.826;9.030;2022-08-21T02:15:54;5.97;;;4.20;;
47535;SDS011;33278;50.826;9.030;2022-08-21T02:18:24;4.35;;;4.05;;
47535;SDS011;33278;50.826;9.030;2022-08-21T02:20:54;4.15;;;3.85;;
47535;SDS011;33278;50.826;9.030;2022-08-21T02:23:25;4.28;;;3.72;;
47535;SDS011;33278;50.826;9.030;2022-08-21T02:25:58;4.03;;;3.72;;
47535;SDS011;33278;50.826;9.030;2022-08-21T02:28:30;4.15;;;3.85;;
47535;SDS011;33278;50.826;9.030;2022-08-21T02:31:01;4.68;;;4.28;;
47535;SDS011;33278;50.826;9.030;2022-08-21T02:33:32;4.63;;;4.23;;
47535;SDS011;33278;50.826;9.030;2022-08-21T02:36:03;4.65;;;4.25;;
47535;SDS011;33278;50.826;9.030;2022-08-21T02:38:34;4.15;;;3.85;;
47535;SDS011;33278;50.826;9.030;2022-08-21T02:41:10;4.18;;;3.67;;
47535;SDS011;33278;50.826;9.030;2022-08-21T02:43:43;3.95;;;3.65;;
47535;SDS011;33278;50.826;9.030;2022-08-21T02:46:15;4.22;;;3.83;;
47535;SDS011;33278;50.826;9.030;2022-08-21T02:48:47;4.22;;;3.85;;
47535;SDS011;33278;50.826;9.030;2022-08-21T02:51:18;4.38;;;3.97;;
47535;SDS011;33278;50.826;9.030;2022-08-21T02:53:49;5.53;;;3.63;;
47535;SDS011;33278;50.826;9.030;2022-08-21T02:56:20;4.00;;;3.70;;
47535;SDS011;33278;50.826;9.030;2022-08-21T02:58:52;3.33;;;3.13;;
47535;SDS011;33278;50.826;9.030;2022-08-21T03:01:22;4.10;;;3.80;;
47535;SDS011;33278;50.826;9.030;2022-08-21T03:03:52;3.47;;;3.17;;
47535;SDS011;33278;50.826;9.030;2022-08-21T03:06:23;3.85;;;3.55;;
47535;SDS011;33278;50.826;9.030;2022-08-21T03:08:54;5.00;;;3.83;;
47535;SDS011;33278;50.826;9.030;2022-08-21T03:11:24;3.80;;;3.50;;
47535;SDS011;33278;50.826;9.030;2022-08-21T03:13:56;3.97;;;3.67;;
47535;SDS011;33278;50.826;9.030;2022-08-21T03:16:26;3.72;;;3.42;;
47535;SDS011;33278;50.826;9.030;2022-08-21T03:18:56;3.83;;;3.53;;
47535;SDS011;33278;50.826;9.030;2022-08-21T03:21:27;4.20;;;3.80;;
47535;SDS011;33278;50.826;9.030;2022-08-21T03:23:58;3.92;;;3.58;;
47535;SDS011;33278;50.826;9.030;2022-08-21T03:26:28;3.88;;;3.58;;
47535;SDS011;33278;50.826;9.030;2022-08-21T03:28:59;3.92;;;3.63;;
47535;SDS011;33278;50.826;9.030;2022-08-21T03:31:29;4.00;;;3.65;;
47535;SDS011;33278;50.826;9.030;2022-08-21T03:34:01;4.22;;;3.92;;
47535;SDS011;33278;50.826;9.030;2022-08-21T03:36:31;3.63;;;3.38;;
47535;SDS011;33278;50.826;9.030;2022-08-21T03:39:02;3.80;;;3.50;;
47535;SDS011;33278;50.826;9.030;2022-08-21T03:41:33;4.30;;;3.63;;
47535;SDS011;33278;50.826;9.030;2022-08-21T03:44:03;4.57;;;3.90;;
47535;SDS011;33278;50.826;9.030;2022-08-21T03:46:33;3.72;;;3.42;;
47535;SDS011;33278;50.826;9.030;2022-08-21T03:49:04;3.90;;;3.60;;
47535;SDS011;33278;50.826;9.030;2022-08-21T03:51:34;3.90;;;3.60;;
47535;SDS011;33278;50.826;9.030;2022-08-21T03:54:05;4.15;;;3.75;;
47535;SDS011;33278;50.826;9.030;2022-08-21T03:56:35;3.50;;;3.20;;
47535;SDS011;33278;50.826;9.030;2022-08-21T03:59:06;3.70;;;3.40;;
47535;SDS011;33278;50.826;9.030;2022-08-21T04:01:36;4.00;;;3.65;;
47535;SDS011;33278;50.826;9.030;2022-08-21T04:04:07;3.80;;;3.50;;
47535;SDS011;33278;50.826;9.030;2022-08-21T04:06:37;3.90;;;3.60;;
47535;SDS011;33278;50.826;9.030;2022-08-21T04:09:07;3.85;;;3.50;;
47535;SDS011;33278;50.826;9.030;2022-08-21T04:11:38;4.00;;;3.70;;
47535;SDS011;33278;50.826;9.030;2022-08-21T04:14:08;4.00;;;3.70;;
47535;SDS011;33278;50.826;9.030;2022-08-21T04:16:39;3.78;;;3.47;;
47535;SDS011;33278;50.826;9.030;2022-08-21T04:19:11;3.95;;;3.22;;
47535;SDS011;33278;50.826;9.030;2022-08-21T04:21:43;3.63;;;3.33;;
47535;SDS011;33278;50.826;9.030;2022-08-21T04:24:13;3.92;;;3.63;;
47535;SDS011;33278;50.826;9.030;2022-08-21T04:26:44;3.60;;;3.30;;
47535;SDS011;33278;50.826;9.030;2022-08-21T04:29:14;3.55;;;3.25;;
47535;SDS011;33278;50.826;9.030;2022-08-21T04:31:44;3.83;;;3.53;;
47535;SDS011;33278;50.826;9.030;2022-08-21T04:34:14;3.78;;;3.47;;
47535;SDS011;33278;50.826;9.030;2022-08-21T04:36:45;3.60;;;3.25;;
47535;SDS011;33278;50.826;9.030;2022-08-21T04:39:15;3.60;;;3.30;;
47535;SDS011;33278;50.826;9.030;2022-08-21T04:41:45;3.83;;;3.53;;
47535;SDS011;33278;50.826;9.030;2022-08-21T04:44:16;3.75;;;3.45;;
47535;SDS011;33278;50.826;9.030;2022-08-21T04:46:46;4.03;;;3.72;;
47535;SDS011;33278;50.826;9.030;2022-08-21T04:49:16;3.80;;;3.50;;
47535;SDS011;33278;50.826;9.030;2022-08-21T04:51:47;4.10;;;3.70;;
47535;SDS011;33278;50.826;9.030;2022-08-21T04:54:18;3.67;;;3.38;;
47535;SDS011;33278;50.826;9.030;2022-08-21T04:56:51;3.97;;;3.67;;
47535;SDS011;33278;50.826;9.030;2022-08-21T04:59:27;3.13;;;2.92;;
47535;SDS011;33278;50.826;9.030;2022-08-21T05:02:01;4.30;;;3.05;;
47535;SDS011;33278;50.826;9.030;2022-08-21T05:04:33;4.13;;;3.83;;
47535;SDS011;33278;50.826;9.030;2022-08-21T05:07:09;3.72;;;3.42;;
47535;SDS011;33278;50.826;9.030;2022-08-21T05:09:41;3.30;;;3.10;;
47535;SDS011;33278;50.826;9.030;2022-08-21T05:12:12;3.80;;;3.42;;
47535;SDS011;33278;50.826;9.030;2022-08-21T05:14:43;3.00;;;2.80;;
47535;SDS011;33278;50.826;9.030;2022-08-21T05:17:13;4.30;;;3.90;;
47535;SDS011;33278;50.826;9.030;2022-08-21T05:19:44;3.80;;;3.38;;
47535;SDS011;33278;50.826;9.030;2022-08-21T05:22:23;3.80;;;3.38;;
47535;SDS011;33278;50.826;9.030;2022-08-21T05:24:54;3.83;;;3.53;;
47535;SDS011;33278;50.826;9.030;2022-08-21T05:27:24;4.95;;;3.45;;
47535;SDS011;33278;50.826;9.030;2022-08-21T05:29:55;3.72;;;3.42;;
47535;SDS011;33278;50.826;9.030;2022-08-21T05:32:26;3.53;;;3.22;;
47535;SDS011;33278;50.826;9.030;2022-08-21T05:34:58;3.60;;;3.30;;
47535;SDS011;33278;50.826;9.030;2022-08-21T05:37:29;3.90;;;3.60;;
47535;SDS011;33278;50.826;9.030;2022-08-21T05:40:00;4.32;;;3.92;;
47535;SDS011;33278;50.826;9.030;2022-08-21T05:42:31;4.22;;;3.90;;
47535;SDS011;33278;50.826;9.030;2022-08-21T05:45:02;4.13;;;3.83;;
47535;SDS011;33278;50.826;9.030;2022-08-21T05:47:32;3.72;;;3.42;;
47535;SDS011;33278;50.826;9.030;2022-08-21T05:50:03;3.90;;;3.60;;
47535;SDS011;33278;50.826;9.030;2022-08-21T05:52:34;7.32;;;5.57;;
47535;SDS011;33278;50.826;9.030;2022-08-21T05:55:05;6.35;;;5.75;;
47535;SDS011;33278;50.826;9.030;2022-08-21T05:57:35;8.68;;;8.07;;
47535;SDS011;33278;50.826;9.030;2022-08-21T06:00:06;8.00;;;7.40;;
47535;SDS011;33278;50.826;9.030;2022-08-21T06:02:39;8.55;;;7.82;;
47535;SDS011;33278;50.826;9.030;2022-08-21T06:05:10;9.30;;;8.13;;
47535;SDS011;33278;50.826;9.030;2022-08-21T06:07:41;9.55;;;8.75;;
47535;SDS011;33278;50.826;9.030;2022-08-21T06:10:11;9.10;;;8.30;;
47535;SDS011;33278;50.826;9.030;2022-08-21T06:12:42;10.40;;;9.55;;
47535;SDS011;33278;50.826;9.030;2022-08-21T06:15:13;10.30;;;9.40;;
47535;SDS011;33278;50.826;9.030;2022-08-21T06:17:43;8.65;;;7.95;;
47535;SDS011;33278;50.826;9.030;2022-08-21T06:20:13;9.23;;;8.40;;
47535;SDS011;33278;50.826;9.030;2022-08-21T06:22:43;9.32;;;8.52;;
47535;SDS011;33278;50.826;9.030;2022-08-21T06:25:14;9.38;;;8.60;;
47535;SDS011;33278;50.826;9.030;2022-08-21T06:27:44;9.98;;;9.02;;
47535;SDS011;33278;50.826;9.030;2022-08-21T06:30:15;9.65;;;8.55;;
47535;SDS011;33278;50.826;9.030;2022-08-21T06:32:46;9.65;;;8.82;;
47535;SDS011;33278;50.826;9.030;2022-08-21T06:35:16;9.80;;;8.88;;
47535;SDS011;33278;50.826;9.030;2022-08-21T06:37:47;9.38;;;8.40;;
47535;SDS011;33278;50.826;9.030;2022-08-21T06:40:17;8.80;;;8.10;;
47535;SDS011;33278;50.826;9.030;2022-08-21T06:42:48;8.43;;;7.60;;
47535;SDS011;33278;50.826;9.030;2022-08-21T06:45:19;10.05;;;9.02;;
47535;SDS011;33278;50.826;9.030;2022-08-21T06:47:50;9.73;;;8.85;;
47535;SDS011;33278;50.826;9.030;2022-08-21T06:50:20;9.95;;;9.05;;
47535;SDS011;33278;50.826;9.030;2022-08-21T06:52:57;8.70;;;7.85;;
47535;SDS011;33278;50.826;9.030;2022-08-21T06:55:29;9.50;;;8.60;;
47535;SDS011;33278;50.826;9.030;2022-08-21T06:57:59;8.15;;;7.35;;
47535;SDS011;33278;50.826;9.030;2022-08-21T07:00:30;9.30;;;8.52;;
47535;SDS011;33278;50.826;9.030;2022-08-21T07:03:02;9.02;;;7.95;;
47535;SDS011;33278;50.826;9.030;2022-08-21T07:05:32;8.45;;;7.85;;
47535;SDS011;33278;50.826;9.030;2022-08-21T07:08:03;8.45;;;7.75;;
47535;SDS011;33278;50.826;9.030;2022-08-21T07:10:33;8.20;;;7.50;;
47535;SDS011;33278;50.826;9.030;2022-08-21T07:13:03;9.15;;;8.38;;
47535;SDS011;33278;50.826;9.030;2022-08-21T07:15:34;8.20;;;7.45;;
47535;SDS011;33278;50.826;9.030;2022-08-21T07:18:04;8.73;;;8.02;;
47535;SDS011;33278;50.826;9.030;2022-08-21T07:20:35;7.47;;;6.85;;
47535;SDS011;33278;50.826;9.030;2022-08-21T07:23:06;8.18;;;7.53;;
47535;SDS011;33278;50.826;9.030;2022-08-21T07:25:40;8.98;;;8.27;;
47535;SDS011;33278;50.826;9.030;2022-08-21T07:28:11;7.68;;;6.97;;
47535;SDS011;33278;50.826;9.030;2022-08-21T07:30:41;8.23;;;7.43;;
47535;SDS011;33278;50.826;9.030;2022-08-21T07:33:11;9.02;;;7.57;;
47535;SDS011;33278;50.826;9.030;2022-08-21T07:35:41;10.00;;;8.38;;
47535;SDS011;33278;50.826;9.030;2022-08-21T07:38:12;8.65;;;7.88;;
47535;SDS011;33278;50.826;9.030;2022-08-21T07:40:42;8.85;;;8.05;;
47535;SDS011;33278;50.826;9.030;2022-08-21T07:43:12;8.30;;;7.60;;
47535;SDS011;33278;50.826;9.030;2022-08-21T07:45:43;9.88;;;8.40;;
47535;SDS011;33278;50.826;9.030;2022-08-21T07:48:15;9.48;;;8.68;;
47535;SDS011;33278;50.826;9.030;2022-08-21T07:50:46;9.20;;;8.30;;
47535;SDS011;33278;50.826;9.030;2022-08-21T07:53:17;10.10;;;8.70;;
47535;SDS011;33278;50.826;9.030;2022-08-21T07:55:47;8.95;;;8.15;;
47535;SDS011;33278;50.826;9.030;2022-08-21T07:58:18;9.82;;;8.68;;
47535;SDS011;33278;50.826;9.030;2022-08-21T08:00:48;8.98;;;8.18;;
47535;SDS011;33278;50.826;9.030;2022-08-21T08:03:19;8.82;;;7.75;;
47535;SDS011;33278;50.826;9.030;2022-08-21T08:05:49;9.60;;;8.07;;
47535;SDS011;33278;50.826;9.030;2022-08-21T08:08:20;13.63;;;9.05;;
47535;SDS011;33278;50.826;9.030;2022-08-21T08:10:50;15.07;;;7.90;;
47535;SDS011;33278;50.826;9.030;2022-08-21T08:13:22;10.93;;;6.80;;
47535;SDS011;33278;50.826;9.030;2022-08-21T08:15:53;10.95;;;7.35;;
47535;SDS011;33278;50.826;9.030;2022-08-21T08:18:23;10.02;;;7.22;;
47535;SDS011;33278;50.826;9.030;2022-08-21T08:20:54;8.45;;;6.93;;
47535;SDS011;33278;50.826;9.030;2022-08-21T08:23:24;7.18;;;5.95;;
47535;SDS011;33278;50.826;9.030;2022-08-21T08:25:55;7.05;;;6.43;;
47535;SDS011;33278;50.826;9.030;2022-08-21T08:28:25;16.30;;;6.22;;
47535;SDS011;33278;50.826;9.030;2022-08-21T08:30:57;6.40;;;5.57;;
47535;SDS011;33278;50.826;9.030;2022-08-21T08:33:28;6.93;;;6.30;;
47535;SDS011;33278;50.826;9.030;2022-08-21T08:35:58;7.68;;;6.78;;
47535;SDS011;33278;50.826;9.030;2022-08-21T08:38:29;7.85;;;5.53;;
47535;SDS011;33278;50.826;9.030;2022-08-21T08:41:06;8.15;;;5.90;;
47535;SDS011;33278;50.826;9.030;2022-08-21T08:43:44;6.32;;;5.50;;
47535;SDS011;33278;50.826;9.030;2022-08-21T08:46:25;5.72;;;5.20;;
47535;SDS011;33278;50.826;9.030;2022-08-21T08:49:13;5.70;;;5.15;;
47535;SDS011;33278;50.826;9.030;2022-08-21T08:51:54;6.15;;;5.53;;
47535;SDS011;33278;50.826;9.030;2022-08-21T08:54:34;6.43;;;5.82;;
47535;SDS011;33278;50.826;9.030;2022-08-21T08:57:14;6.50;;;5.45;;
47535;SDS011;33278;50.826;9.030;2022-08-21T08:59:48;6.35;;;5.43;;
47535;SDS011;33278;50.826;9.030;2022-08-21T09:02:22;5.75;;;5.25;;
47535;SDS011;33278;50.826;9.030;2022-08-21T09:04:58;5.85;;;4.72;;
47535;SDS011;33278;50.826;9.030;2022-08-21T09:07:33;5.78;;;5.20;;
47535;SDS011;33278;50.826;9.030;2022-08-21T09:21:43;5.30;;;4.80;;
47535;SDS011;33278;50.826;9.030;2022-08-21T09:24:35;5.10;;;4.70;;
47535;SDS011;33278;50.826;9.030;2022-08-21T09:27:29;4.85;;;4.35;;
47535;SDS011;33278;50.826;9.030;2022-08-21T09:30:01;5.40;;;5.00;;
47535;SDS011;33278;50.826;9.030;2022-08-21T09:32:33;5.35;;;4.75;;
47535;SDS011;33278;50.826;9.030;2022-08-21T09:38:03;5.47;;;4.97;;
47535;SDS011;33278;50.826;9.030;2022-08-21T09:40:45;4.78;;;4.38;;
47535;SDS011;33278;50.826;9.030;2022-08-21T09:43:18;4.65;;;4.25;;
47535;SDS011;33278;50.826;9.030;2022-08-21T09:46:01;4.93;;;4.47;;
47535;SDS011;33278;50.826;9.030;2022-08-21T09:48:40;4.60;;;4.20;;
47535;SDS011;33278;50.826;9.030;2022-08-21T09:51:23;5.82;;;4.57;;
47535;SDS011;33278;50.826;9.030;2022-08-21T09:54:17;10.60;;;4.93;;
47535;SDS011;33278;50.826;9.030;2022-08-21T09:56:53;12.27;;;5.63;;
47535;SDS011;33278;50.826;9.030;2022-08-21T09:59:43;8.07;;;5.03;;
47535;SDS011;33278;50.826;9.030;2022-08-21T10:02:22;10.35;;;5.28;;
47535;SDS011;33278;50.826;9.030;2022-08-21T10:04:57;16.77;;;5.28;;
47535;SDS011;33278;50.826;9.030;2022-08-21T10:07:31;10.98;;;4.90;;
47535;SDS011;33278;50.826;9.030;2022-08-21T10:10:08;11.27;;;4.60;;
47535;SDS011;33278;50.826;9.030;2022-08-21T10:15:49;15.68;;;4.88;;
47535;SDS011;33278;50.826;9.030;2022-08-21T10:18:36;10.77;;;5.68;;
47535;SDS011;33278;50.826;9.030;2022-08-21T10:21:17;9.32;;;5.50;;
47535;SDS011;33278;50.826;9.030;2022-08-21T10:24:29;10.95;;;5.47;;
47535;SDS011;33278;50.826;9.030;2022-08-21T10:27:06;12.48;;;6.65;;
47535;SDS011;33278;50.826;9.030;2022-08-21T10:29:53;10.57;;;6.40;;
47535;SDS011;33278;50.826;9.030;2022-08-21T10:40:48;8.13;;;5.88;;
47535;SDS011;33278;50.826;9.030;2022-08-21T10:46:15;8.30;;;6.10;;
47535;SDS011;33278;50.826;9.030;2022-08-21T10:52:02;11.93;;;6.82;;
47535;SDS011;33278;50.826;9.030;2022-08-21T11:00:21;11.95;;;6.32;;
47535;SDS011;33278;50.826;9.030;2022-08-21T11:05:43;9.98;;;6.25;;
47535;SDS011;33278;50.826;9.030;2022-08-21T11:11:00;9.15;;;6.28;;
47535;SDS011;33278;50.826;9.030;2022-08-21T11:13:37;8.32;;;5.97;;
47535;SDS011;33278;50.826;9.030;2022-08-21T11:16:13;6.15;;;5.55;;
47535;SDS011;33278;50.826;9.030;2022-08-21T11:19:02;6.75;;;5.05;;
47535;SDS011;33278;50.826;9.030;2022-08-21T11:24:30;5.88;;;5.28;;
47535;SDS011;33278;50.826;9.030;2022-08-21T11:27:13;7.03;;;4.93;;
47535;SDS011;33278;50.826;9.030;2022-08-21T11:29:56;6.43;;;5.10;;
47535;SDS011;33278;50.826;9.030;2022-08-21T11:35:39;6.88;;;5.25;;
47535;SDS011;33278;50.826;9.030;2022-08-21T11:47:08;6.28;;;4.50;;
47535;SDS011;33278;50.826;9.030;2022-08-21T11:53:26;6.45;;;4.88;;
47535;SDS011;33278;50.826;9.030;2022-08-21T11:56:02;6.25;;;4.43;;
47535;SDS011;33278;50.826;9.030;2022-08-21T11:58:39;6.35;;;5.10;;
47535;SDS011;33278;50.826;9.030;2022-08-21T12:01:11;5.07;;;4.30;;
47535;SDS011;33278;50.826;9.030;2022-08-21T12:04:04;7.00;;;4.80;;
47535;SDS011;33278;50.826;9.030;2022-08-21T12:06:40;5.82;;;4.30;;
47535;SDS011;33278;50.826;9.030;2022-08-21T12:09:28;5.57;;;4.70;;
47535;SDS011;33278;50.826;9.030;2022-08-21T12:14:39;8.13;;;4.50;;
47535;SDS011;33278;50.826;9.030;2022-08-21T12:17:24;11.27;;;3.85;;
47535;SDS011;33278;50.826;9.030;2022-08-21T12:26:03;5.00;;;4.05;;
47535;SDS011;33278;50.826;9.030;2022-08-21T12:28:33;4.05;;;3.65;;
47535;SDS011;33278;50.826;9.030;2022-08-21T12:31:04;6.00;;;3.95;;
47535;SDS011;33278;50.826;9.030;2022-08-21T12:33:38;4.90;;;4.32;;
47535;SDS011;33278;50.826;9.030;2022-08-21T12:36:13;4.78;;;4.32;;
47535;SDS011;33278;50.826;9.030;2022-08-21T12:38:57;4.22;;;3.58;;
47535;SDS011;33278;50.826;9.030;2022-08-21T12:41:33;4.38;;;3.97;;
47535;SDS011;33278;50.826;9.030;2022-08-21T12:44:22;5.15;;;3.97;;
47535;SDS011;33278;50.826;9.030;2022-08-21T12:47:03;4.32;;;3.92;;
47535;SDS011;33278;50.826;9.030;2022-08-21T12:49:37;4.30;;;3.90;;
47535;SDS011;33278;50.826;9.030;2022-08-21T12:52:23;4.20;;;3.80;;
47535;SDS011;33278;50.826;9.030;2022-08-21T12:55:00;4.10;;;3.75;;
47535;SDS011;33278;50.826;9.030;2022-08-21T12:57:31;4.15;;;3.67;;
47535;SDS011;33278;50.826;9.030;2022-08-21T13:00:04;5.15;;;4.20;;
47535;SDS011;33278;50.826;9.030;2022-08-21T13:02:42;8.85;;;4.35;;
47535;SDS011;33278;50.826;9.030;2022-08-21T13:05:19;12.38;;;4.95;;
47535;SDS011;33278;50.826;9.030;2022-08-21T13:08:04;9.88;;;3.92;;
47535;SDS011;33278;50.826;9.030;2022-08-21T13:10:36;6.10;;;3.70;;
47535;SDS011;33278;50.826;9.030;2022-08-21T13:13:10;6.53;;;3.65;;
47535;SDS011;33278;50.826;9.030;2022-08-21T13:15:47;5.25;;;4.20;;
47535;SDS011;33278;50.826;9.030;2022-08-21T13:18:21;4.28;;;3.40;;
47535;SDS011;33278;50.826;9.030;2022-08-21T13:23:35;6.38;;;3.45;;
47535;SDS011;33278;50.826;9.030;2022-08-21T13:26:12;4.90;;;3.33;;
47535;SDS011;33278;50.826;9.030;2022-08-21T13:28:52;8.40;;;3.42;;
47535;SDS011;33278;50.826;9.030;2022-08-21T13:31:24;4.20;;;3.80;;
47535;SDS011;33278;50.826;9.030;2022-08-21T13:33:57;4.25;;;3.60;;
47535;SDS011;33278;50.826;9.030;2022-08-21T13:36:29;3.50;;;3.20;;
47535;SDS011;33278;50.826;9.030;2022-08-21T13:39:04;3.60;;;3.13;;
47535;SDS011;33278;50.826;9.030;2022-08-21T13:41:41;4.97;;;3.45;;
47535;SDS011;33278;50.826;9.030;2022-08-21T13:44:21;4.65;;;3.75;;
47535;SDS011;33278;50.826;9.030;2022-08-21T13:46:56;3.03;;;2.67;;
47535;SDS011;33278;50.826;9.030;2022-08-21T13:49:33;9.60;;;3.75;;
47535;SDS011;33278;50.826;9.030;2022-08-21T13:54:56;35.05;;;7.50;;
47535;SDS011;33278;50.826;9.030;2022-08-21T13:57:30;15.75;;;4.47;;
47535;SDS011;33278;50.826;9.030;2022-08-21T14:02:45;12.80;;;4.93;;
47535;SDS011;33278;50.826;9.030;2022-08-21T14:05:27;14.32;;;4.97;;
47535;SDS011;33278;50.826;9.030;2022-08-21T14:10:36;12.82;;;4.63;;
47535;SDS011;33278;50.826;9.030;2022-08-21T14:16:03;9.88;;;3.72;;
47535;SDS011;33278;50.826;9.030;2022-08-21T14:21:42;9.48;;;4.32;;
47535;SDS011;33278;50.826;9.030;2022-08-21T14:27:03;10.90;;;4.05;;
47535;SDS011;33278;50.826;9.030;2022-08-21T14:29:37;6.55;;;3.35;;
47535;SDS011;33278;50.826;9.030;2022-08-21T14:32:20;7.75;;;3.60;;
47535;SDS011;33278;50.826;9.030;2022-08-21T14:34:59;5.30;;;3.80;;
47535;SDS011;33278;50.826;9.030;2022-08-21T14:37:30;9.10;;;3.72;;
47535;SDS011;33278;50.826;9.030;2022-08-21T14:40:00;6.35;;;3.38;;
47535;SDS011;33278;50.826;9.030;2022-08-21T14:42:32;4.97;;;3.08;;
47535;SDS011;33278;50.826;9.030;2022-08-21T14:45:05;7.20;;;3.47;;
47535;SDS011;33278;50.826;9.030;2022-08-21T14:47:43;5.03;;;3.47;;
47535;SDS011;33278;50.826;9.030;2022-08-21T14:50:13;3.95;;;2.97;;
47535;SDS011;33278;50.826;9.030;2022-08-21T14:52:44;7.40;;;3.35;;
47535;SDS011;33278;50.826;9.030;2022-08-21T14:55:16;5.63;;;3.28;;
47535;SDS011;33278;50.826;9.030;2022-08-21T14:57:48;4.70;;;3.40;;
47535;SDS011;33278;50.826;9.030;2022-08-21T15:00:22;8.02;;;3.20;;
47535;SDS011;33278;50.826;9.030;2022-08-21T15:02:54;4.32;;;3.10;;
47535;SDS011;33278;50.826;9.030;2022-08-21T15:05:24;6.53;;;3.38;;
47535;SDS011;33278;50.826;9.030;2022-08-21T15:07:54;3.92;;;3.35;;
47535;SDS011;33278;50.826;9.030;2022-08-21T15:10:25;4.72;;;3.05;;
47535;SDS011;33278;50.826;9.030;2022-08-21T15:12:55;4.57;;;2.78;;
47535;SDS011;33278;50.826;9.030;2022-08-21T15:15:26;4.68;;;3.25;;
47535;SDS011;33278;50.826;9.030;2022-08-21T15:17:56;3.03;;;2.63;;
47535;SDS011;33278;50.826;9.030;2022-08-21T15:20:26;4.68;;;3.38;;
47535;SDS011;33278;50.826;9.030;2022-08-21T15:22:57;4.10;;;2.50;;
47535;SDS011;33278;50.826;9.030;2022-08-21T15:25:27;3.67;;;3.10;;
47535;SDS011;33278;50.826;9.030;2022-08-21T15:27:58;4.50;;;2.83;;
47535;SDS011;33278;50.826;9.030;2022-08-21T15:30:29;3.73;;;2.60;;
47535;SDS011;33278;50.826;9.030;2022-08-21T15:33:01;3.70;;;3.30;;
47535;SDS011;33278;50.826;9.030;2022-08-21T15:35:31;3.35;;;2.72;;
47535;SDS011;33278;50.826;9.030;2022-08-21T15:38:02;3.90;;;2.85;;
47535;SDS011;33278;50.826;9.030;2022-08-21T15:40:34;3.22;;;2.33;;
47535;SDS011;33278;50.826;9.030;2022-08-21T15:43:05;2.65;;;2.30;;
47535;SDS011;33278;50.826;9.030;2022-08-21T15:45:36;3.72;;;2.92;;
47535;SDS011;33278;50.826;9.030;2022-08-21T15:48:06;2.33;;;2.10;;
47535;SDS011;33278;50.826;9.030;2022-08-21T15:50:37;3.00;;;2.70;;
47535;SDS011;33278;50.826;9.030;2022-08-21T15:53:07;2.60;;;2.40;;
47535;SDS011;33278;50.826;9.030;2022-08-21T15:55:39;3.50;;;2.67;;
47535;SDS011;33278;50.826;9.030;2022-08-21T15:58:16;4.95;;;2.55;;
47535;SDS011;33278;50.826;9.030;2022-08-21T16:00:46;3.42;;;2.55;;
47535;SDS011;33278;50.826;9.030;2022-08-21T16:03:17;2.70;;;2.20;;
47535;SDS011;33278;50.826;9.030;2022-08-21T16:05:51;3.30;;;2.60;;
47535;SDS011;33278;50.826;9.030;2022-08-21T16:08:23;2.67;;;2.30;;
47535;SDS011;33278;50.826;9.030;2022-08-21T16:10:54;3.70;;;2.30;;
47535;SDS011;33278;50.826;9.030;2022-08-21T16:13:26;3.67;;;2.53;;
47535;SDS011;33278;50.826;9.030;2022-08-21T16:15:58;3.33;;;2.15;;
47535;SDS011;33278;50.826;9.030;2022-08-21T16:18:29;3.13;;;2.30;;
47535;SDS011;33278;50.826;9.030;2022-08-21T16:20:59;3.20;;;2.45;;
47535;SDS011;33278;50.826;9.030;2022-08-21T16:23:30;3.53;;;2.50;;
47535;SDS011;33278;50.826;9.030;2022-08-21T16:26:03;3.92;;;2.47;;
47535;SDS011;33278;50.826;9.030;2022-08-21T16:28:36;2.75;;;2.13;;
47535;SDS011;33278;50.826;9.030;2022-08-21T16:31:08;3.45;;;1.95;;
47535;SDS011;33278;50.826;9.030;2022-08-21T16:33:41;2.05;;;1.95;;
47535;SDS011;33278;50.826;9.030;2022-08-21T16:36:13;2.58;;;1.95;;
47535;SDS011;33278;50.826;9.030;2022-08-21T16:38:44;2.13;;;1.92;;
47535;SDS011;33278;50.826;9.030;2022-08-21T16:43:49;2.30;;;2.10;;
47535;SDS011;33278;50.826;9.030;2022-08-21T16:46:20;2.92;;;2.65;;
47535;SDS011;33278;50.826;9.030;2022-08-21T16:48:51;5.70;;;2.35;;
47535;SDS011;33278;50.826;9.030;2022-08-21T16:51:21;2.20;;;2.00;;
47535;SDS011;33278;50.826;9.030;2022-08-21T16:53:53;2.80;;;1.70;;
47535;SDS011;33278;50.826;9.030;2022-08-21T16:56:23;3.13;;;2.15;;
47535;SDS011;33278;50.826;9.030;2022-08-21T16:58:54;2.72;;;2.10;;